Ride Results

Mudgee Endurance ride (21-05-2006)
Ride distance: 100.0 km

Outcomes - Mudgee Endurance ride (21-05-2006)
Division No. of Entries Retired / DNE Completed Withdrawn Ineligible V/O Percentage Completed
HW 29 - 24 4 - 1 82.76%
MW 66 - 55 2 - 9 83.33%
LW 25 - 20 - - 5 80.00%
JN 8 - 7 - - 1 87.50%
Totals 128 - 106 6 - 16 82.81%
Results - Mudgee Endurance ride (21-05-2006)
No. Rider Horse Place Time Leg Speeds Total
Km/Hr
H/R bpm
Heavyweight
85 Peter Bonham Box Hill Saintly 1 7:35:00 13.2, 12.6, 13.7 13.19 31, 44, 39, 40 (Avg:41)
31 Peter Cooper Anabriar Khaboul 2 8:35:00 13.1, 11.0, 9.6 11.65 33, 44, 44, 54 (Avg:47)
6 Haydn Fisher Umayyed Silver Taye 3 9:09:00 13.1, 8.2, 11.8 10.93 28, 40, 40, 50 (Avg:43)
108 Virginia Blain Salam Mezzlah 4 9:32:00 12.2, 9.2, 9.0 10.49 34, 42, 41, 42 (Avg:41)
29 Rod Mitchell Aloha Naja 5 9:36:00 12.1, 8.2, 10.6 10.42 31, 38, 44, 46 (Avg:42)
77 Allan Caslick Cherox Qadir 6 9:53:00 10.8, 8.8, 10.6 10.12 27, 39, 37, 36 (Avg:37)
45 Kevin Sayer Canyonleigh Stargazer 6 9:53:00 12.9, 8.2, 8.3 10.12 33, 40, 48, 49 (Avg:45)
107 Charles Gauci Stacey-Le Zorro 8 6:21:00 13.5, 11.2 12.60 35, 45, 59 (Avg:52)
90 Mark Freeman Cedar Ridge Fire N Gold 9 7:02:00 12.4, 9.8 11.37 31, 37, 44 (Avg:40)
37 Brian Norton Gusunder 10 7:44:00 12.2, 8.1 10.34 32, 44, 50 (Avg:47)
4 David Porter Sangria Meccalister 11 7:55:00 10.9, 8.9 10.11 33, 40, 43 (Avg:41)
97 Barry Blinman Waugoola Creek XL 12 8:07:00 11.5, 7.9 9.86 32, 40, 44 (Avg:42)
66 Denise Trollope Churinga Carrishka 13 8:08:00 12.1, 7.4 9.84 37, 42, 40 (Avg:41)
26 Gavin Groth Rowallan Rising Sun 14 8:14:00 10.9, 8.1 9.72 34, 42, 52 (Avg:47)
54 Michael Boland A'Landell Karlinta 15 8:58:00 11.4, 6.5 8.92 39, 43, 52 (Avg:47)
62 Ken Halverson Turners Stud Lightning Ridge 16 9:13:00 11.6, 6.0 8.68 36, 44, 43 (Avg:43)
72 Bruce Thornton Coco 16 9:13:00 11.1, 6.3 8.68 37, 40, 47 (Avg:43)
53 Paddy Smith Nurelee Talisman 18 9:24:00 9.0, 7.6 8.51 44, 44, 60 (Avg:52)
24 Les Robinson Karumba Cadence 19 9:26:00 10.2, 6.5 8.48 41, 44, 42 (Avg:43)
99 Alan Mackinder Devi 20 9:32:00 11.6, 5.7 8.39 31, 44, 46 (Avg:45)
42 Craig Exley Widgy 21 9:42:00 11.6, 5.5 8.25 43, 52, 52 (Avg:52)
44 Dean Warren Mindari Quicksilver 22 10:04:00 10.7, 5.5 7.95 40, 52, 57 (Avg:54)
106 Robin Jones Desert Duelers Con 23 10:37:00 8.2, 6.5 7.54 46, 48, 48 (Avg:48)
43 Sue Warren Warren Park O.B. One 24 10:53:00 8.2, 6.2 7.35 31, 44, 50 (Avg:47)
34 Alice Austin Jade Widthdrawn L1 0:00:00 - - 34, 46 (Avg:46)
52 Bern Harvey Velona Sinttara Widthdrawn L1 0:00:00 - - 36, 59 (Avg:59)
109 Frank Mollema Omani Strike A Light Widthdrawn L1 0:00:00 - - 37, 39 (Avg:39)
95 Allan Watts Regal Crusader Lame L1 0:00:00 16.3 - 40, 0 (Avg:0)
96 Mathew Thuaux Tavern Park Shiraz Widthdrawn P/R 0:00:00 - - 0
Middleweight
84 Kristy Waddell Box Hill Zac Complete P/R 0:00:00 - - 0
88 Mark Harvey Judstan Sharwayn 1 6:51:00 16.7, 12.3, 13.9 14.60 35, 55, 55, 56 (Avg:55)
100 Patricia Waddell Box Hill Jezabel 2 7:32:00 13.2, 12.6, 14.2 13.27 36, 45, 41, 50 (Avg:45)
60 Jennifer Gilbertson Kurrajong Shadad 3 7:46:00 12.4, 14.2, 11.9 12.88 38, 44, 45, 45 (Avg:44)
10 Garry Bennett My Georgy Girl 4 8:16:00 14.8, 9.4, 11.6 12.10 36, 44, 53, 54 (Avg:50)
102 Daphne Phillips Rowallan Lassitor 4 8:16:00 14.8, 9.4, 11.6 12.10 32, 41, 40, 43 (Avg:41)
59 Brad Dillon Ebonglen Holmegaard 6 8:35:00 14.6, 9.6, 9.6 11.65 33, 42, 48, 44 (Avg:44)
38 Tony Norman Valinor Park Moonshadow 6 8:35:00 13.5, 12.4, 8.0 11.65 31, 40, 43, 43 (Avg:42)
12 Mette Sutton Tuldar The Magician 8 8:55:00 12.8, 12.7, 7.4 11.21 36, 44, 50, 48 (Avg:47)
30 Dianne Cameron Bimbimbi Zephyr 9 9:05:00 12.7, 9.0, 10.7 11.01 31, 45, 52, 59 (Avg:52)
23 Rowena Robinson Karumba Nazrani 10 9:38:00 10.7, 9.2, 11.4 10.38 36, 39, 47, 47 (Avg:44)
49 Tracy Haack PPP Xan 11 9:47:00 12.9, 9.2, 7.4 10.22 37, 40, 50, 45 (Avg:45)
50 Duncan Satchell Alhambra Mirage 11 9:47:00 12.9, 9.2, 7.4 10.22 34, 44, 53, 46 (Avg:47)
65 Donna Tidswell State Secret 11 9:47:00 11.0, 9.6, 9.2 10.22 36, 48, 48, 51 (Avg:49)
80 Denise Milton Linden Johar 14 9:49:00 11.4, 8.2, 10.8 10.19 0, 44, 56, 51 (Avg:50)
46 Allana Rempel Claremont Park Breanne 15 9:53:00 11.1, 8.4, 10.6 10.12 33, 38, 47, 52 (Avg:45)
78 Shan Symons A-Landell Major Jepardy 15 9:53:00 11.1, 8.4, 10.6 10.12 32, 36, 38, 36 (Avg:36)
41 Julie Scruse Danjera Kadhir 17 6:06:00 13.5, 12.4 13.11 37, 40, 45 (Avg:42)
36 Kevin Guihot Dazzling Dee Jay 18 6:20:00 13.1, 11.9 12.63 32, 47, 57 (Avg:52)
61 Megan Edey Zagora 19 6:48:00 12.3, 10.8 11.76 33, 40, 43 (Avg:41)
2 Renee Kirk Cherox Assassin 19 6:48:00 12.2, 11.0 11.76 40, 48, 52 (Avg:50)
87 Rochelle Knihinicki Tuldar Ronnie 21 6:50:00 12.2, 10.9 11.71 36, 48, 56 (Avg:52)
69 Tami Parnell Tallawarra Jazardis 21 6:50:00 12.9, 10.0 11.71 37, 44, 53 (Avg:48)
3 Rosemary Stocks Shatari 21 6:50:00 12.2, 10.9 11.71 36, 40, 48 (Avg:44)
73 Terry Wood Tommie 21 6:50:00 12.9, 10.0 11.71 34, 34, 44 (Avg:39)
15 Marita Rifai Tuldar Slingshot 25 7:37:00 12.8, 8.0 10.50 43, 41, 48 (Avg:44)
92 Brodie Freeman Cedar Ridge Divide and Rule 26 7:40:00 11.6, 8.9 10.43 40, 52, 52 (Avg:52)
89 Rene Schipper Taminga 27 7:43:00 10.8, 9.6 10.37 29, 48, 48 (Avg:48)
51 Helen Patterson El Jannah Ala 28 7:49:00 11.5, 8.6 10.23 38, 48, 54 (Avg:51)
48 Kevin Walton El Jannah Zafir 28 7:49:00 11.5, 8.6 10.23 40, 37, 45 (Avg:41)
33 Neroli Mitchell- Cooper Ralvon Ramamm 30 7:54:00 11.6, 8.3 10.13 31, 36, 47 (Avg:41)
91 Bob Howden Pindari Park Rahal 31 7:56:00 12.7, 7.4 10.08 36, 48, 48 (Avg:48)
56 Margaret Boland Iviore 32 8:00:00 11.4, 8.2 10.00 32, 36, 40 (Avg:38)
76 Sandi Brown A'Landell Intent 32 8:00:00 9.2, 11.4 10.00 33, 44, 47 (Avg:45)
81 Stephanie Grolimund Aloha Vikara 34 8:01:00 11.4, 8.2 9.98 32, 44, 44 (Avg:44)
104 Jenny Sandford Jumangi 34 8:01:00 11.6, 8.0 9.98 31, 42, 44 (Avg:43)
82 Peter Brown Heste Arabique Waterloo 36 8:06:00 11.4, 8.0 9.88 38, 50, 59 (Avg:54)
57 Karen Rhodes Shadow 37 8:07:00 11.4, 7.9 9.86 35, 39, 47 (Avg:43)
67 Annette Truman El Shataan Adu Baba 38 8:08:00 12.1, 7.4 9.84 34, 46, 54 (Avg:50)
74 April Bonham Joda Shantilly 39 8:12:00 10.6, 8.6 9.76 34, 44, 52 (Avg:48)
75 Stuart Hitchcock Farras 39 8:12:00 10.6, 8.6 9.76 44, 43, 42 (Avg:42)
28 Rhiannon Groth Ceda 41 8:14:00 10.9, 8.1 9.72 40, 36, 41 (Avg:38)
25 Karin Santoso Castlebar Musteke 42 8:18:00 10.3, 8.6 9.64 33, 48, 48 (Avg:48)
113 Naomi Djuric Manana Trouseau 43 8:32:00 11.6, 7.0 9.38 37, 57, 48 (Avg:52)
110 Kerry Topic Shazam 44 8:53:00 11.4, 6.6 9.01 36, 44, 44 (Avg:44)
79 Shelley Jones Gravy Train 45 8:58:00 9.2, 8.3 8.92 35, 52, 46 (Avg:49)
64 Bruce Carter Salamay Hazel Zarah 46 9:02:00 10.4, 7.0 8.86 38, 41, 43 (Avg:42)
63 Sue Gerrard Salamay Naomi 46 9:02:00 10.4, 7.0 8.86 32, 44, 44 (Avg:44)
7 John Robertson Karabil Kaloola 48 9:05:00 10.5, 6.8 8.81 32, 40, 48 (Avg:44)
8 James Ryan Brandy 48 9:05:00 10.5, 6.8 8.81 36, 45, 44 (Avg:44)
16 Gary Tweedie Zaahmir 50 9:26:00 10.2, 6.5 8.48 37, 41, 42 (Avg:41)
17 Victoria Bonham Calypso Jessica 51 9:27:00 9.1, 7.5 8.47 32, 38, 42 (Avg:40)
18 Chris Noonan Bridle Track Dasha 51 9:27:00 8.3, 8.6 8.47 36, 37, 37 (Avg:37)
40 Fritz Seehofer EL-Barana Serbiyah 51 9:27:00 11.6, 5.8 8.47 26, 36, 48 (Avg:42)
27 Kim Corliss Miss Malara Cindaberry 54 10:50:00 10.1, 5.0 7.38 36, 48, 49 (Avg:48)
86 Sonia Bonham Box Hill Glider Lame L3 0:00:00 13.2, 12.6, 13.7 - 32, 44, 46, 46 (Avg:45)
19 Brett Willis One Eye Crystal Dreams Lame L3 0:00:00 10.9, 8.8, 12.4 - 35, 44, 44, 46 (Avg:44)
58 Katrina Bodewes Leechdale Golden Jackpot Heart Rate L2 0:00:00 10.3, 6.4 - 42, 32, 64 (Avg:48)
20 Lindsay Hine Harmere Zameea Widthdrawn L2 0:00:00 - - 42, 48, 52 (Avg:50)
105 Fiona Meller Malu Vale Embers Lame L2 0:00:00 11.4, 6.6 - 34, 36, 40 (Avg:38)
93 Jas Crafter Sienna Shikahn Lame L1 0:00:00 14.8 - 0, 44 (Avg:44)
5 Gail Fisher Aylah Widthdrawn L1 0:00:00 - - 32, 40 (Avg:40)
22 Howard Harris Harmere Turfan Lame L1 0:00:00 16.3 - 34, 42 (Avg:42)
101A Darryl King Shanadarr Zahira Metabolics L1 0:00:00 8.2 - 43, 0 (Avg:0)
32 Susan Pritchard Faym El Kadet Heart Rate L1 0:00:00 9.0 - 32, 64 (Avg:64)
35 John Symons Burren-dah Ferari Lame L1 0:00:00 10.1 - 36, 55 (Avg:55)
Lightweight
719 Gloria Mills Glendos Sabodie 1 6:51:00 16.8, 12.2, 13.9 14.60 29, 39, 44, 46 (Avg:43)
709 Wendy Jones Nioka Park Sorceress 2 7:32:00 14.0, 11.9, 13.6 13.27 31, 40, 43, 44 (Avg:42)
700 Dianne Luker Topline Sophine 3 8:25:00 12.8, 12.7, 9.1 11.88 33, 44, 11, 52 (Avg:35)
717 Patricia Reid Forest Dale Xpose 4 8:37:00 13.5, 11.2, 8.8 11.61 32, 47, 52, 48 (Avg:49)
726 Cherry Cummins Master Renaut (Ferrymaster at Webbs Creek) 5 9:04:00 12.3, 10.8, 8.8 11.03 33, 44, 44, 39 (Avg:42)
721 Dawn Spicer Jen-A-Dale Zanzibar 5 9:04:00 12.4, 8.6, 12.4 11.03 34, 42, 52, 40 (Avg:44)
716 Robin Gossip Wesswood Willow 7 9:35:00 12.7, 9.0, 8.4 10.43 31, 41, 49, 48 (Avg:46)
727 Nikki Tucker Sanlargo Mystique 8 9:37:00 11.0, 9.6, 9.9 10.40 36, 40, 40, 41 (Avg:40)
722 Sue Todd Shakista 9 9:47:00 12.9, 10.7, 6.3 10.22 41, 48, 49, 52 (Avg:49)
732 Mary Hollingsworth Dante 10 5:54:00 16.8, 10.2 13.56 40, 54, 52 (Avg:53)
725 Rebecca Hogan Rowallan Sonic 11 6:39:00 12.9, 10.7 12.03 33, 29, 45 (Avg:37)
720 Kerry Reveley Rathowen On Parade 12 6:48:00 12.4, 10.7 11.76 33, 42, 50 (Avg:46)
724 Kerry Walker Bradali Nhadya 12 6:48:00 12.4, 10.7 11.76 33, 46, 50 (Avg:48)
731 Sonya Nicholls Nyora Crystal 14 7:19:00 12.2, 9.2 10.93 31, 40, 44 (Avg:42)
729 Carol Layton Omani Mr Sqiggle 15 7:56:00 12.7, 7.4 10.08 35, 40, 44 (Avg:42)
706 Ava Pellizzari Zzariava Valentino 16 8:03:00 11.4, 8.1 9.94 34, 50, 43 (Avg:46)
102 Tanya Wisbey Tomthum 17 8:06:00 11.0, 8.3 9.88 32, 40, 46 (Avg:43)
715 Kate Pilley Pancho 18 9:45:00 9.2, 6.8 8.21 31, 38, 47 (Avg:42)
718 Lyndell McGowan Alandell Palette 19 10:30:00 9.0, 5.9 7.62 31, 44, 43 (Avg:43)
730 Alana Miles Ja-Rob Dadee Kool 20 6:03:00 8.2 8.26 34, 40 (Avg:40)
701 Jo Carrick Barinya Magical Mischief Lame L1 0:00:00 10.9 - 40, 47 (Avg:47)
705 Jodi Dewick Wickwood Ibn Hosea Lame L1 0:00:00 8.6 - 50, 50 (Avg:50)
713 Fiona Groth Abrock Christopher Lame L1 0:00:00 10.9 - 31, 31 (Avg:31)
702 Linda Logan Follydown Topaz Lame L1 0:00:00 9.9 - 32, 40 (Avg:40)
714 Jan Wade Hajra Leonie Metabolics P/R 0:00:00 - - 33
Junior
728 Christie Chapman Box Hill Tonderburine 1 7:32:00 13.2, 12.6, 14.2 13.27 33, 40, 44, 50 (Avg:44)
723 Sharna Harvey Binks 1 7:32:00 13.1, 12.0, 16.2 13.27 33, 40, 52, 45 (Avg:45)
707 Victoria Pellizari Razorback Blue Kakadu 3 9:34:00 11.4, 9.4, 9.8 10.45 32, 37, 42, 41 (Avg:40)
710 Allix Jones A'Landell Koorah 4 6:04:00 14.0, 11.9 13.19 33, 38, 42 (Avg:40)
735 Jamie Mollema Yaraandoo Jakara Silver 5 7:56:00 11.2, 8.6 10.08 29, 37, 48 (Avg:42)
712 Matthew Groth Cameo Stormboy 6 8:15:00 10.9, 8.1 9.70 32, 40, 41 (Avg:40)
802 Seton Croake Bronte 7 9:45:00 9.1, 7.0 8.21 33, 38, 57 (Avg:47)
733 Stacey Booth-Mollema Harmere Rosetta Lame L1 0:00:00 11.2 - 43, 54 (Avg:54)